Ursa Minor — ICGH — position and weather

sailwx.info

Track history (hours):
 
Tides and Currents Weather Stations Pressure Air Temp Water Temp Dewpoint Dewpoint Depression Visibility Wind Speed Wind Dir Waves Ship Positions

Ursa Minor

Last reported at 2017-Mar-30 02:30 UTC. Time now 2017-Mar-30 02:51 UTC.
Position N 37°53' E 015°46'.

Length 205 m; draft 9 m.

Type: Ship. MMSI: 247082300.

Date/timePositionNaut miles runAvg speedWind from/ knotsBaromVisibWave heightAir tempDewpointWater temp
2017-Mar-30 02:30N 37°53' E 015°46'15610.1
2017-Mar-29 11:05N 40°16' E 017°08'611.6
2017-Mar-29 10:33N 40°22' E 017°07'8 6.9
2017-Mar-29 09:26N 40°28' E 017°13'0 0.1
2017-Mar-29 08:30N 40°28' E 017°13'4 4.4
2017-Mar-29 07:30N 40°27' E 017°07'4 3.8
2017-Mar-29 06:29N 40°30' E 017°10'0 0.0
2017-Mar-29 05:33N 40°30' E 017°10'0 0.0
2017-Mar-29 04:32N 40°30' E 017°10'0 0.0
2017-Mar-29 03:32N 40°30' E 017°10'0 0.0
2017-Mar-29 02:31N 40°30' E 017°10'0 0.0
2017-Mar-29 01:30N 40°30' E 017°10'0 0.0
2017-Mar-29 00:29N 40°30' E 017°10'0 0.0
2017-Mar-28 23:28N 40°30' E 017°10'0 0.4
2017-Mar-28 22:33N 40°30' E 017°09'6 5.7
2017-Mar-28 21:32N 40°24' E 017°07'9 8.9
2017-Mar-28 20:32N 40°15' E 017°08'1212.4
2017-Mar-28 19:33N 40°03' E 017°09'14510.4
2017-Mar-28 05:33N 37°55' E 015°42'1211.6
2017-Mar-28 04:33N 38°05' E 015°35'1010.1
2017-Mar-28 03:33N 38°15' E 015°39'7 7.0
2017-Mar-28 02:33N 38°22' E 015°38'1010.1
2017-Mar-28 01:33N 38°31' E 015°31'1110.6
2017-Mar-28 00:33N 38°40' E 015°24'1110.8
2017-Mar-27 23:31N 38°50' E 015°17'36711.9
2017-Mar-26 16:33N 43°29' E 010°02'1212.3
2017-Mar-26 15:33N 43°38' E 009°50'1212.4
2017-Mar-26 14:33N 43°48' E 009°39'1212.4
2017-Mar-26 13:33N 43°57' E 009°27'1212.1
2017-Mar-26 12:33N 44°06' E 009°16'1212.0
2017-Mar-26 11:33N 44°15' E 009°05'1211.6
2017-Mar-26 10:33N 44°23' E 008°54'2 1.6
2017-Mar-26 09:33N 44°24' E 008°52'0 0.0
2017-Mar-26 08:30N 44°24' E 008°52'0 0.0
2017-Mar-26 07:33N 44°24' E 008°52'0 0.0
2017-Mar-26 06:33N 44°24' E 008°52'0 0.0
2017-Mar-26 05:33N 44°24' E 008°52'0 0.0
2017-Mar-26 04:30N 44°24' E 008°52'0 0.0
2017-Mar-26 03:30N 44°24' E 008°52'0 0.0
2017-Mar-26 02:30N 44°24' E 008°52'0 0.2
2017-Mar-26 01:33N 44°24' E 008°52'6 6.3
2017-Mar-26 00:33N 44°20' E 008°59'1212.4
2017-Mar-25 23:33N 44°11' E 009°10'1212.0
2017-Mar-25 22:33N 44°02' E 009°21'1211.9
2017-Mar-25 21:33N 43°53' E 009°32'1111.4
2017-Mar-25 20:33N 43°45' E 009°43'1111.5
2017-Mar-25 19:33N 43°36' E 009°53'1111.3
2017-Mar-25 18:33N 43°27' E 010°03'1111.2
2017-Mar-25 17:33N 43°18' E 010°13'1110.8
2017-Mar-25 16:30N 43°08' E 010°18'1212.1
2017-Mar-25 15:33N 42°58' E 010°26'1412.0
2017-Mar-25 14:21N 42°46' E 010°37'18012.2
2017-Mar-24 23:33N 40°45' E 013°36'1212.2
2017-Mar-24 22:33N 40°37' E 013°48'1212.2
2017-Mar-24 21:33N 40°30' E 014°01'1212.0
2017-Mar-24 20:30N 40°20' E 014°11'11912.0
2017-Mar-24 10:33N 38°36' E 015°28'1212.0
2017-Mar-24 09:33N 38°26' E 015°36'1110.9
2017-Mar-24 08:33N 38°16' E 015°42'9 9.5
2017-Mar-24 07:33N 38°08' E 015°36'1111.0
2017-Mar-24 06:33N 37°57' E 015°39'1211.3
2017-Mar-24 05:31N 37°53' E 015°52'11210.9
2017-Mar-23 19:11N 39°24' E 017°16'811.9
2017-Mar-23 18:31N 39°32' E 017°15'3912.0
2017-Mar-23 15:15N 40°11' E 017°07'911.9
2017-Mar-23 14:30N 40°20' E 017°05'1010.3
2017-Mar-23 13:29N 40°30' E 017°08'1 1.3
2017-Mar-23 12:33N 40°30' E 017°10'0 0.0
2017-Mar-23 11:33N 40°30' E 017°10'0 0.0
2017-Mar-23 10:32N 40°30' E 017°10'0 0.0
2017-Mar-23 09:31N 40°30' E 017°10'0 0.0
2017-Mar-23 08:20N 40°30' E 017°10'4 5.1
2017-Mar-23 07:29N 40°26' E 017°10'3 3.2
2017-Mar-23 06:30N 40°28' E 017°13'0 0.0
2017-Mar-23 05:30N 40°28' E 017°13'0 0.0
2017-Mar-23 04:30N 40°28' E 017°13'0 0.0
2017-Mar-23 03:30N 40°28' E 017°13'0 0.0
2017-Mar-23 02:30N 40°28' E 017°13'0 0.0
2017-Mar-23 01:30N 40°28' E 017°13'0 0.0
2017-Mar-23 00:30N 40°28' E 017°13'0 0.0
2017-Mar-22 23:30N 40°28' E 017°13'0 0.0
2017-Mar-22 22:30N 40°28' E 017°13'0 0.0
2017-Mar-22 21:30N 40°28' E 017°13'0 0.0
2017-Mar-22 20:30N 40°28' E 017°13'0 0.0
2017-Mar-22 19:30N 40°28' E 017°13'0 0.0
2017-Mar-22 18:30N 40°28' E 017°13'0 0.0
2017-Mar-22 17:30N 40°28' E 017°13'0 0.0
2017-Mar-22 16:30N 40°28' E 017°13'0 0.0
2017-Mar-22 15:30N 40°28' E 017°13'0 0.0
2017-Mar-22 14:30N 40°28' E 017°13'0 0.0
2017-Mar-22 13:30N 40°28' E 017°13'0 0.0
2017-Mar-22 12:30N 40°28' E 017°13'0 0.0
2017-Mar-22 11:30N 40°28' E 017°13'0 0.0
2017-Mar-22 10:30N 40°28' E 017°13'0 0.0
2017-Mar-22 09:32N 40°28' E 017°13'0 0.0
2017-Mar-22 08:32N 40°28' E 017°13'0 0.0
2017-Mar-22 07:32N 40°28' E 017°13'0 0.0
2017-Mar-22 06:32N 40°28' E 017°13'0 0.0
2017-Mar-22 05:33N 40°28' E 017°13'0 0.0
2017-Mar-22 04:33N 40°28' E 017°13'0 0.0
2017-Mar-22 03:33N 40°28' E 017°13'0 0.0
2017-Mar-22 02:33N 40°28' E 017°13'0 0.0
2017-Mar-22 01:33N 40°28' E 017°13'0 0.0
2017-Mar-22 00:32N 40°28' E 017°13'0 0.0
2017-Mar-21 23:32N 40°28' E 017°13'0 0.0
2017-Mar-21 22:33N 40°28' E 017°13'0 0.0
2017-Mar-21 21:33N 40°28' E 017°13'0 0.0
2017-Mar-21 20:33N 40°28' E 017°13'0 0.0
2017-Mar-21 19:33N 40°28' E 017°13'0 0.0
2017-Mar-21 18:33N 40°28' E 017°13'0 0.0
2017-Mar-21 17:33N 40°28' E 017°13'0 0.0
2017-Mar-21 16:32N 40°28' E 017°13'0 0.0
2017-Mar-21 15:29N 40°28' E 017°13'0 0.0
2017-Mar-21 14:32N 40°28' E 017°13'1 1.3
2017-Mar-21 13:30N 40°27' E 017°13'8 7.7
2017-Mar-21 12:28N 40°20' E 017°08'1311.8
2017-Mar-21 11:22N 40°07' E 017°09'14810.4
2017-Mar-20 21:08N 37°54' E 015°46'711.9
2017-Mar-20 20:33N 37°58' E 015°39'1313.0
2017-Mar-20 19:33N 38°10' E 015°35'1111.0
2017-Mar-20 18:34N 38°21' E 015°39'1211.6
2017-Mar-20 17:33N 38°31' E 015°32'1211.7
2017-Mar-20 16:32N 38°41' E 015°23'1311.9
2017-Mar-20 15:28N 38°52' E 015°16'  
Track history (hours):
 
Tides and Currents Weather Stations Pressure Air Temp Water Temp Dewpoint Dewpoint Depression Visibility Wind Speed Wind Dir Waves Ship Positions

Ursa Minor

Last reported at 2017-Mar-30 02:30 UTC. Time now 2017-Mar-30 02:51 UTC.
Position N 37°53' E 015°46'.

Length 205 m; draft 9 m.

Type: Ship. MMSI: 247082300.

Date/timePositionNaut miles runAvg speedWind from/ knotsBaromVisibWave heightAir tempDewpointWater temp
2017-Mar-30 02:30N 37°53' E 015°46'15610.1
2017-Mar-29 11:05N 40°16' E 017°08'611.6
2017-Mar-29 10:33N 40°22' E 017°07'8 6.9
2017-Mar-29 09:26N 40°28' E 017°13'0 0.1
2017-Mar-29 08:30N 40°28' E 017°13'4 4.4
2017-Mar-29 07:30N 40°27' E 017°07'4 3.8
2017-Mar-29 06:29N 40°30' E 017°10'0 0.0
2017-Mar-29 05:33N 40°30' E 017°10'0 0.0
2017-Mar-29 04:32N 40°30' E 017°10'0 0.0
2017-Mar-29 03:32N 40°30' E 017°10'0 0.0
2017-Mar-29 02:31N 40°30' E 017°10'0 0.0
2017-Mar-29 01:30N 40°30' E 017°10'0 0.0
2017-Mar-29 00:29N 40°30' E 017°10'0 0.0
2017-Mar-28 23:28N 40°30' E 017°10'0 0.4
2017-Mar-28 22:33N 40°30' E 017°09'6 5.7
2017-Mar-28 21:32N 40°24' E 017°07'9 8.9
2017-Mar-28 20:32N 40°15' E 017°08'1212.4
2017-Mar-28 19:33N 40°03' E 017°09'14510.4
2017-Mar-28 05:33N 37°55' E 015°42'1211.6
2017-Mar-28 04:33N 38°05' E 015°35'1010.1
2017-Mar-28 03:33N 38°15' E 015°39'7 7.0
2017-Mar-28 02:33N 38°22' E 015°38'1010.1
2017-Mar-28 01:33N 38°31' E 015°31'1110.6
2017-Mar-28 00:33N 38°40' E 015°24'1110.8
2017-Mar-27 23:31N 38°50' E 015°17'36711.9
2017-Mar-26 16:33N 43°29' E 010°02'1212.3
2017-Mar-26 15:33N 43°38' E 009°50'1212.4
2017-Mar-26 14:33N 43°48' E 009°39'1212.4
2017-Mar-26 13:33N 43°57' E 009°27'1212.1
2017-Mar-26 12:33N 44°06' E 009°16'1212.0
2017-Mar-26 11:33N 44°15' E 009°05'1211.6
2017-Mar-26 10:33N 44°23' E 008°54'2 1.6
2017-Mar-26 09:33N 44°24' E 008°52'0 0.0
2017-Mar-26 08:30N 44°24' E 008°52'0 0.0
2017-Mar-26 07:33N 44°24' E 008°52'0 0.0
2017-Mar-26 06:33N 44°24' E 008°52'0 0.0
2017-Mar-26 05:33N 44°24' E 008°52'0 0.0
2017-Mar-26 04:30N 44°24' E 008°52'0 0.0
2017-Mar-26 03:30N 44°24' E 008°52'0 0.0
2017-Mar-26 02:30N 44°24' E 008°52'0 0.2
2017-Mar-26 01:33N 44°24' E 008°52'6 6.3
2017-Mar-26 00:33N 44°20' E 008°59'1212.4
2017-Mar-25 23:33N 44°11' E 009°10'1212.0
2017-Mar-25 22:33N 44°02' E 009°21'1211.9
2017-Mar-25 21:33N 43°53' E 009°32'1111.4
2017-Mar-25 20:33N 43°45' E 009°43'1111.5
2017-Mar-25 19:33N 43°36' E 009°53'1111.3
2017-Mar-25 18:33N 43°27' E 010°03'1111.2
2017-Mar-25 17:33N 43°18' E 010°13'1110.8
2017-Mar-25 16:30N 43°08' E 010°18'1212.1
2017-Mar-25 15:33N 42°58' E 010°26'1412.0
2017-Mar-25 14:21N 42°46' E 010°37'18012.2
2017-Mar-24 23:33N 40°45' E 013°36'1212.2
2017-Mar-24 22:33N 40°37' E 013°48'1212.2
2017-Mar-24 21:33N 40°30' E 014°01'1212.0
2017-Mar-24 20:30N 40°20' E 014°11'11912.0
2017-Mar-24 10:33N 38°36' E 015°28'1212.0
2017-Mar-24 09:33N 38°26' E 015°36'1110.9
2017-Mar-24 08:33N 38°16' E 015°42'9 9.5
2017-Mar-24 07:33N 38°08' E 015°36'1111.0
2017-Mar-24 06:33N 37°57' E 015°39'1211.3
2017-Mar-24 05:31N 37°53' E 015°52'11210.9
2017-Mar-23 19:11N 39°24' E 017°16'811.9
2017-Mar-23 18:31N 39°32' E 017°15'3912.0
2017-Mar-23 15:15N 40°11' E 017°07'911.9
2017-Mar-23 14:30N 40°20' E 017°05'1010.3
2017-Mar-23 13:29N 40°30' E 017°08'1 1.3
2017-Mar-23 12:33N 40°30' E 017°10'0 0.0
2017-Mar-23 11:33N 40°30' E 017°10'0 0.0
2017-Mar-23 10:32N 40°30' E 017°10'0 0.0
2017-Mar-23 09:31N 40°30' E 017°10'0 0.0
2017-Mar-23 08:20N 40°30' E 017°10'4 5.1
2017-Mar-23 07:29N 40°26' E 017°10'3 3.2
2017-Mar-23 06:30N 40°28' E 017°13'0 0.0
2017-Mar-23 05:30N 40°28' E 017°13'0 0.0
2017-Mar-23 04:30N 40°28' E 017°13'0 0.0
2017-Mar-23 03:30N 40°28' E 017°13'0 0.0
2017-Mar-23 02:30N 40°28' E 017°13'0 0.0
2017-Mar-23 01:30N 40°28' E 017°13'0 0.0
2017-Mar-23 00:30N 40°28' E 017°13'0 0.0
2017-Mar-22 23:30N 40°28' E 017°13'0 0.0
2017-Mar-22 22:30N 40°28' E 017°13'0 0.0
2017-Mar-22 21:30N 40°28' E 017°13'0 0.0
2017-Mar-22 20:30N 40°28' E 017°13'0 0.0
2017-Mar-22 19:30N 40°28' E 017°13'0 0.0
2017-Mar-22 18:30N 40°28' E 017°13'0 0.0
2017-Mar-22 17:30N 40°28' E 017°13'0 0.0
2017-Mar-22 16:30N 40°28' E 017°13'0 0.0
2017-Mar-22 15:30N 40°28' E 017°13'0 0.0
2017-Mar-22 14:30N 40°28' E 017°13'0 0.0
2017-Mar-22 13:30N 40°28' E 017°13'0 0.0
2017-Mar-22 12:30N 40°28' E 017°13'0 0.0
2017-Mar-22 11:30N 40°28' E 017°13'0 0.0
2017-Mar-22 10:30N 40°28' E 017°13'0 0.0
2017-Mar-22 09:32N 40°28' E 017°13'0 0.0
2017-Mar-22 08:32N 40°28' E 017°13'0 0.0
2017-Mar-22 07:32N 40°28' E 017°13'0 0.0
2017-Mar-22 06:32N 40°28' E 017°13'0 0.0
2017-Mar-22 05:33N 40°28' E 017°13'0 0.0
2017-Mar-22 04:33N 40°28' E 017°13'0 0.0
2017-Mar-22 03:33N 40°28' E 017°13'0 0.0
2017-Mar-22 02:33N 40°28' E 017°13'0 0.0
2017-Mar-22 01:33N 40°28' E 017°13'0 0.0
2017-Mar-22 00:32N 40°28' E 017°13'0 0.0
2017-Mar-21 23:32N 40°28' E 017°13'0 0.0
2017-Mar-21 22:33N 40°28' E 017°13'0 0.0
2017-Mar-21 21:33N 40°28' E 017°13'0 0.0
2017-Mar-21 20:33N 40°28' E 017°13'0 0.0
2017-Mar-21 19:33N 40°28' E 017°13'0 0.0
2017-Mar-21 18:33N 40°28' E 017°13'0 0.0
2017-Mar-21 17:33N 40°28' E 017°13'0 0.0
2017-Mar-21 16:32N 40°28' E 017°13'0 0.0
2017-Mar-21 15:29N 40°28' E 017°13'0 0.0
2017-Mar-21 14:32N 40°28' E 017°13'1 1.3
2017-Mar-21 13:30N 40°27' E 017°13'8 7.7
2017-Mar-21 12:28N 40°20' E 017°08'1311.8
2017-Mar-21 11:22N 40°07' E 017°09'14810.4
2017-Mar-20 21:08N 37°54' E 015°46'711.9
2017-Mar-20 20:33N 37°58' E 015°39'1313.0
2017-Mar-20 19:33N 38°10' E 015°35'1111.0
2017-Mar-20 18:34N 38°21' E 015°39'1211.6
2017-Mar-20 17:33N 38°31' E 015°32'1211.7
2017-Mar-20 16:32N 38°41' E 015°23'1311.9
2017-Mar-20 15:28N 38°52' E 015°16'  

Dump ship's entire track history